sensor_id;sensor_type;location;lat;lon;timestamp;P1;durP1;ratioP1;P2;durP2;ratioP2
75758;SDS011;64371;47.566;19.086;2024-01-07T00:02:19;24.27;;;12.57;;
75758;SDS011;64371;47.566;19.086;2024-01-07T00:05:21;23.90;;;12.73;;
75758;SDS011;64371;47.566;19.086;2024-01-07T00:08:24;24.85;;;13.38;;
75758;SDS011;64371;47.566;19.086;2024-01-07T00:11:26;25.17;;;12.83;;
75758;SDS011;64371;47.566;19.086;2024-01-07T00:14:28;25.20;;;12.67;;
75758;SDS011;64371;47.566;19.086;2024-01-07T00:17:31;25.63;;;12.85;;
75758;SDS011;64371;47.566;19.086;2024-01-07T00:20:33;27.38;;;13.35;;
75758;SDS011;64371;47.566;19.086;2024-01-07T00:23:36;23.17;;;12.77;;
75758;SDS011;64371;47.566;19.086;2024-01-07T00:26:38;28.43;;;12.73;;
75758;SDS011;64371;47.566;19.086;2024-01-07T00:29:41;23.60;;;12.80;;
75758;SDS011;64371;47.566;19.086;2024-01-07T00:32:43;22.90;;;12.75;;
75758;SDS011;64371;47.566;19.086;2024-01-07T00:35:46;24.98;;;13.45;;
75758;SDS011;64371;47.566;19.086;2024-01-07T00:38:48;22.00;;;12.20;;
75758;SDS011;64371;47.566;19.086;2024-01-07T00:41:51;23.50;;;12.90;;
75758;SDS011;64371;47.566;19.086;2024-01-07T00:44:53;24.30;;;13.30;;
75758;SDS011;64371;47.566;19.086;2024-01-07T00:47:55;24.38;;;12.95;;
75758;SDS011;64371;47.566;19.086;2024-01-07T00:50:58;22.67;;;12.52;;
75758;SDS011;64371;47.566;19.086;2024-01-07T00:54:00;23.30;;;13.25;;
75758;SDS011;64371;47.566;19.086;2024-01-07T00:57:03;22.60;;;12.90;;
75758;SDS011;64371;47.566;19.086;2024-01-07T01:00:06;21.20;;;12.13;;
75758;SDS011;64371;47.566;19.086;2024-01-07T01:03:09;22.42;;;12.02;;
75758;SDS011;64371;47.566;19.086;2024-01-07T01:06:11;23.52;;;12.48;;
75758;SDS011;64371;47.566;19.086;2024-01-07T01:09:13;21.27;;;11.27;;
75758;SDS011;64371;47.566;19.086;2024-01-07T01:12:16;21.97;;;11.47;;
75758;SDS011;64371;47.566;19.086;2024-01-07T01:15:18;20.30;;;11.10;;
75758;SDS011;64371;47.566;19.086;2024-01-07T01:18:21;21.10;;;10.27;;
75758;SDS011;64371;47.566;19.086;2024-01-07T01:21:24;21.38;;;11.32;;
75758;SDS011;64371;47.566;19.086;2024-01-07T01:24:26;19.85;;;10.95;;
75758;SDS011;64371;47.566;19.086;2024-01-07T01:27:29;19.23;;;11.63;;
75758;SDS011;64371;47.566;19.086;2024-01-07T01:30:31;19.53;;;11.20;;
75758;SDS011;64371;47.566;19.086;2024-01-07T01:33:34;20.75;;;11.43;;
75758;SDS011;64371;47.566;19.086;2024-01-07T01:36:36;18.77;;;10.27;;
75758;SDS011;64371;47.566;19.086;2024-01-07T01:39:40;19.30;;;11.02;;
75758;SDS011;64371;47.566;19.086;2024-01-07T01:42:43;20.97;;;11.53;;
75758;SDS011;64371;47.566;19.086;2024-01-07T01:45:46;24.03;;;12.20;;
75758;SDS011;64371;47.566;19.086;2024-01-07T01:48:48;27.77;;;12.82;;
75758;SDS011;64371;47.566;19.086;2024-01-07T01:51:51;27.75;;;12.88;;
75758;SDS011;64371;47.566;19.086;2024-01-07T01:54:55;32.25;;;13.40;;
75758;SDS011;64371;47.566;19.086;2024-01-07T01:57:57;26.53;;;13.27;;
75758;SDS011;64371;47.566;19.086;2024-01-07T02:01:05;23.23;;;11.70;;
75758;SDS011;64371;47.566;19.086;2024-01-07T02:04:08;24.60;;;12.18;;
75758;SDS011;64371;47.566;19.086;2024-01-07T02:07:12;25.67;;;12.35;;
75758;SDS011;64371;47.566;19.086;2024-01-07T02:10:16;22.45;;;11.95;;
75758;SDS011;64371;47.566;19.086;2024-01-07T02:13:19;24.53;;;11.97;;
75758;SDS011;64371;47.566;19.086;2024-01-07T02:16:24;21.90;;;11.83;;
75758;SDS011;64371;47.566;19.086;2024-01-07T02:19:26;19.42;;;10.93;;
75758;SDS011;64371;47.566;19.086;2024-01-07T02:22:32;20.45;;;11.20;;
75758;SDS011;64371;47.566;19.086;2024-01-07T02:25:37;21.48;;;11.70;;
75758;SDS011;64371;47.566;19.086;2024-01-07T02:28:40;23.47;;;11.63;;
75758;SDS011;64371;47.566;19.086;2024-01-07T02:31:42;21.93;;;10.73;;
75758;SDS011;64371;47.566;19.086;2024-01-07T02:34:45;23.90;;;11.15;;
75758;SDS011;64371;47.566;19.086;2024-01-07T02:37:51;19.40;;;10.32;;
75758;SDS011;64371;47.566;19.086;2024-01-07T02:40:53;21.25;;;11.07;;
75758;SDS011;64371;47.566;19.086;2024-01-07T02:43:56;23.40;;;11.77;;
75758;SDS011;64371;47.566;19.086;2024-01-07T02:46:58;20.23;;;10.77;;
75758;SDS011;64371;47.566;19.086;2024-01-07T02:50:00;22.33;;;11.32;;
75758;SDS011;64371;47.566;19.086;2024-01-07T02:53:03;19.60;;;10.20;;
75758;SDS011;64371;47.566;19.086;2024-01-07T02:56:05;20.02;;;10.40;;
75758;SDS011;64371;47.566;19.086;2024-01-07T02:59:10;22.50;;;11.13;;
75758;SDS011;64371;47.566;19.086;2024-01-07T03:02:13;22.10;;;11.30;;
75758;SDS011;64371;47.566;19.086;2024-01-07T03:05:15;21.65;;;10.52;;
75758;SDS011;64371;47.566;19.086;2024-01-07T03:08:18;19.83;;;10.25;;
75758;SDS011;64371;47.566;19.086;2024-01-07T03:11:21;21.65;;;10.63;;
75758;SDS011;64371;47.566;19.086;2024-01-07T03:14:23;21.47;;;10.30;;
75758;SDS011;64371;47.566;19.086;2024-01-07T03:17:26;19.77;;;9.33;;
75758;SDS011;64371;47.566;19.086;2024-01-07T03:20:29;18.30;;;9.55;;
75758;SDS011;64371;47.566;19.086;2024-01-07T03:23:35;16.60;;;9.68;;
75758;SDS011;64371;47.566;19.086;2024-01-07T03:26:38;19.10;;;9.30;;
75758;SDS011;64371;47.566;19.086;2024-01-07T03:29:40;18.60;;;9.07;;
75758;SDS011;64371;47.566;19.086;2024-01-07T03:32:43;17.57;;;9.13;;
75758;SDS011;64371;47.566;19.086;2024-01-07T03:35:48;15.63;;;8.88;;
75758;SDS011;64371;47.566;19.086;2024-01-07T03:38:51;17.02;;;8.60;;
75758;SDS011;64371;47.566;19.086;2024-01-07T03:41:55;17.25;;;8.95;;
75758;SDS011;64371;47.566;19.086;2024-01-07T03:44:58;18.40;;;9.07;;
75758;SDS011;64371;47.566;19.086;2024-01-07T03:48:03;15.87;;;8.80;;
75758;SDS011;64371;47.566;19.086;2024-01-07T03:51:06;17.60;;;9.13;;
75758;SDS011;64371;47.566;19.086;2024-01-07T03:54:08;16.20;;;8.75;;
75758;SDS011;64371;47.566;19.086;2024-01-07T03:57:10;16.23;;;8.15;;
75758;SDS011;64371;47.566;19.086;2024-01-07T04:00:13;14.10;;;8.37;;
75758;SDS011;64371;47.566;19.086;2024-01-07T04:03:15;16.43;;;9.13;;
75758;SDS011;64371;47.566;19.086;2024-01-07T04:06:17;16.75;;;8.75;;
75758;SDS011;64371;47.566;19.086;2024-01-07T04:09:20;14.88;;;8.05;;
75758;SDS011;64371;47.566;19.086;2024-01-07T04:12:22;14.50;;;8.05;;
75758;SDS011;64371;47.566;19.086;2024-01-07T04:15:25;14.87;;;8.47;;
75758;SDS011;64371;47.566;19.086;2024-01-07T04:18:27;15.67;;;8.53;;
75758;SDS011;64371;47.566;19.086;2024-01-07T04:21:30;13.55;;;7.85;;
75758;SDS011;64371;47.566;19.086;2024-01-07T04:24:32;13.73;;;7.93;;
75758;SDS011;64371;47.566;19.086;2024-01-07T04:27:35;14.13;;;7.97;;
75758;SDS011;64371;47.566;19.086;2024-01-07T04:30:37;13.37;;;7.13;;
75758;SDS011;64371;47.566;19.086;2024-01-07T04:33:40;11.43;;;6.73;;
75758;SDS011;64371;47.566;19.086;2024-01-07T04:36:42;13.10;;;7.00;;
75758;SDS011;64371;47.566;19.086;2024-01-07T04:39:45;12.35;;;6.63;;
75758;SDS011;64371;47.566;19.086;2024-01-07T04:42:48;11.38;;;6.93;;
75758;SDS011;64371;47.566;19.086;2024-01-07T04:45:50;11.20;;;6.80;;
75758;SDS011;64371;47.566;19.086;2024-01-07T04:48:53;11.70;;;6.80;;
75758;SDS011;64371;47.566;19.086;2024-01-07T04:51:55;10.88;;;6.43;;
75758;SDS011;64371;47.566;19.086;2024-01-07T04:54:58;9.98;;;6.03;;
75758;SDS011;64371;47.566;19.086;2024-01-07T04:58:00;10.55;;;5.93;;
75758;SDS011;64371;47.566;19.086;2024-01-07T05:01:03;9.90;;;6.13;;
75758;SDS011;64371;47.566;19.086;2024-01-07T05:04:06;12.20;;;6.20;;
75758;SDS011;64371;47.566;19.086;2024-01-07T05:07:09;10.85;;;6.03;;
75758;SDS011;64371;47.566;19.086;2024-01-07T05:10:12;10.15;;;5.50;;
75758;SDS011;64371;47.566;19.086;2024-01-07T05:13:14;11.15;;;6.15;;
75758;SDS011;64371;47.566;19.086;2024-01-07T05:16:20;9.57;;;5.87;;
75758;SDS011;64371;47.566;19.086;2024-01-07T05:19:22;8.30;;;5.53;;
75758;SDS011;64371;47.566;19.086;2024-01-07T05:22:25;15.45;;;5.88;;
75758;SDS011;64371;47.566;19.086;2024-01-07T05:25:28;11.20;;;5.97;;
75758;SDS011;64371;47.566;19.086;2024-01-07T05:28:30;8.50;;;5.53;;
75758;SDS011;64371;47.566;19.086;2024-01-07T05:31:33;10.83;;;6.30;;
75758;SDS011;64371;47.566;19.086;2024-01-07T05:34:35;8.63;;;5.30;;
75758;SDS011;64371;47.566;19.086;2024-01-07T05:37:38;9.98;;;5.70;;
75758;SDS011;64371;47.566;19.086;2024-01-07T05:40:40;8.90;;;4.78;;
75758;SDS011;64371;47.566;19.086;2024-01-07T05:43:43;8.63;;;5.38;;
75758;SDS011;64371;47.566;19.086;2024-01-07T05:46:45;8.30;;;5.30;;
75758;SDS011;64371;47.566;19.086;2024-01-07T05:49:47;8.13;;;5.07;;
75758;SDS011;64371;47.566;19.086;2024-01-07T05:52:54;8.27;;;5.30;;
75758;SDS011;64371;47.566;19.086;2024-01-07T05:55:56;7.88;;;4.63;;
75758;SDS011;64371;47.566;19.086;2024-01-07T05:58:59;7.85;;;5.35;;
75758;SDS011;64371;47.566;19.086;2024-01-07T06:02:01;9.10;;;5.87;;
75758;SDS011;64371;47.566;19.086;2024-01-07T06:05:04;9.33;;;5.87;;
75758;SDS011;64371;47.566;19.086;2024-01-07T06:08:06;11.05;;;6.85;;
75758;SDS011;64371;47.566;19.086;2024-01-07T06:11:09;10.75;;;7.18;;
75758;SDS011;64371;47.566;19.086;2024-01-07T06:14:14;10.68;;;6.82;;
75758;SDS011;64371;47.566;19.086;2024-01-07T06:17:17;12.50;;;7.10;;
75758;SDS011;64371;47.566;19.086;2024-01-07T06:20:19;12.07;;;7.07;;
75758;SDS011;64371;47.566;19.086;2024-01-07T06:23:22;14.40;;;8.23;;
75758;SDS011;64371;47.566;19.086;2024-01-07T06:26:33;15.02;;;8.10;;
75758;SDS011;64371;47.566;19.086;2024-01-07T06:29:38;14.63;;;7.85;;
75758;SDS011;64371;47.566;19.086;2024-01-07T06:32:41;12.10;;;7.77;;
75758;SDS011;64371;47.566;19.086;2024-01-07T06:35:45;16.40;;;9.10;;
75758;SDS011;64371;47.566;19.086;2024-01-07T06:38:47;12.02;;;7.80;;
75758;SDS011;64371;47.566;19.086;2024-01-07T06:41:53;13.82;;;7.47;;
75758;SDS011;64371;47.566;19.086;2024-01-07T06:44:55;13.70;;;7.55;;
75758;SDS011;64371;47.566;19.086;2024-01-07T06:48:01;13.60;;;7.30;;
75758;SDS011;64371;47.566;19.086;2024-01-07T06:51:06;13.70;;;7.63;;
75758;SDS011;64371;47.566;19.086;2024-01-07T06:54:08;13.40;;;6.63;;
75758;SDS011;64371;47.566;19.086;2024-01-07T06:57:15;14.63;;;6.70;;
75758;SDS011;64371;47.566;19.086;2024-01-07T07:00:18;12.35;;;7.22;;
75758;SDS011;64371;47.566;19.086;2024-01-07T07:03:20;12.93;;;7.43;;
75758;SDS011;64371;47.566;19.086;2024-01-07T07:06:23;11.93;;;6.37;;
75758;SDS011;64371;47.566;19.086;2024-01-07T07:09:26;11.45;;;6.70;;
75758;SDS011;64371;47.566;19.086;2024-01-07T07:12:28;11.07;;;6.50;;
75758;SDS011;64371;47.566;19.086;2024-01-07T07:15:31;12.43;;;6.78;;
75758;SDS011;64371;47.566;19.086;2024-01-07T07:18:33;10.27;;;6.30;;
75758;SDS011;64371;47.566;19.086;2024-01-07T07:21:36;10.13;;;5.37;;
75758;SDS011;64371;47.566;19.086;2024-01-07T07:24:41;10.63;;;6.60;;
75758;SDS011;64371;47.566;19.086;2024-01-07T07:27:44;9.32;;;5.85;;
75758;SDS011;64371;47.566;19.086;2024-01-07T07:30:46;11.02;;;6.20;;
75758;SDS011;64371;47.566;19.086;2024-01-07T07:33:53;10.27;;;6.23;;
75758;SDS011;64371;47.566;19.086;2024-01-07T07:36:56;11.83;;;6.97;;
75758;SDS011;64371;47.566;19.086;2024-01-07T07:39:58;11.70;;;6.82;;
75758;SDS011;64371;47.566;19.086;2024-01-07T07:43:00;10.98;;;6.82;;
75758;SDS011;64371;47.566;19.086;2024-01-07T07:46:03;12.35;;;7.10;;
75758;SDS011;64371;47.566;19.086;2024-01-07T07:49:06;12.40;;;7.27;;
75758;SDS011;64371;47.566;19.086;2024-01-07T07:52:09;12.80;;;7.20;;
75758;SDS011;64371;47.566;19.086;2024-01-07T07:55:16;12.30;;;7.05;;
75758;SDS011;64371;47.566;19.086;2024-01-07T07:58:19;10.50;;;6.15;;
75758;SDS011;64371;47.566;19.086;2024-01-07T08:01:22;12.35;;;7.13;;
75758;SDS011;64371;47.566;19.086;2024-01-07T08:04:24;11.63;;;6.47;;
75758;SDS011;64371;47.566;19.086;2024-01-07T08:07:29;10.87;;;6.73;;
75758;SDS011;64371;47.566;19.086;2024-01-07T08:10:32;11.13;;;6.57;;
75758;SDS011;64371;47.566;19.086;2024-01-07T08:13:35;10.68;;;6.90;;
75758;SDS011;64371;47.566;19.086;2024-01-07T08:16:38;11.63;;;6.45;;
75758;SDS011;64371;47.566;19.086;2024-01-07T08:19:40;9.27;;;5.80;;
75758;SDS011;64371;47.566;19.086;2024-01-07T08:22:43;9.90;;;6.17;;
75758;SDS011;64371;47.566;19.086;2024-01-07T08:25:45;10.75;;;6.88;;
75758;SDS011;64371;47.566;19.086;2024-01-07T08:28:48;12.23;;;7.20;;
75758;SDS011;64371;47.566;19.086;2024-01-07T08:31:50;12.02;;;6.97;;
75758;SDS011;64371;47.566;19.086;2024-01-07T08:34:53;10.85;;;6.68;;
75758;SDS011;64371;47.566;19.086;2024-01-07T08:37:55;12.00;;;6.50;;
75758;SDS011;64371;47.566;19.086;2024-01-07T08:41:00;9.45;;;6.10;;
75758;SDS011;64371;47.566;19.086;2024-01-07T08:44:05;12.38;;;6.68;;
75758;SDS011;64371;47.566;19.086;2024-01-07T08:47:10;10.38;;;6.18;;
75758;SDS011;64371;47.566;19.086;2024-01-07T08:50:15;10.23;;;6.47;;
75758;SDS011;64371;47.566;19.086;2024-01-07T08:53:17;9.90;;;6.83;;
75758;SDS011;64371;47.566;19.086;2024-01-07T08:56:22;10.00;;;6.25;;
75758;SDS011;64371;47.566;19.086;2024-01-07T08:59:25;10.93;;;6.78;;
75758;SDS011;64371;47.566;19.086;2024-01-07T09:02:27;12.13;;;7.40;;
75758;SDS011;64371;47.566;19.086;2024-01-07T09:05:32;12.83;;;6.87;;
75758;SDS011;64371;47.566;19.086;2024-01-07T09:08:35;11.50;;;7.37;;
75758;SDS011;64371;47.566;19.086;2024-01-07T09:11:37;10.48;;;6.10;;
75758;SDS011;64371;47.566;19.086;2024-01-07T09:14:39;11.18;;;6.97;;
75758;SDS011;64371;47.566;19.086;2024-01-07T09:17:45;13.77;;;7.85;;
75758;SDS011;64371;47.566;19.086;2024-01-07T09:20:48;11.10;;;5.80;;
75758;SDS011;64371;47.566;19.086;2024-01-07T09:23:50;11.17;;;6.77;;
75758;SDS011;64371;47.566;19.086;2024-01-07T09:26:53;9.30;;;5.40;;
75758;SDS011;64371;47.566;19.086;2024-01-07T09:29:55;8.07;;;5.28;;
75758;SDS011;64371;47.566;19.086;2024-01-07T09:32:58;7.68;;;5.38;;
75758;SDS011;64371;47.566;19.086;2024-01-07T09:36:00;8.37;;;4.57;;
75758;SDS011;64371;47.566;19.086;2024-01-07T09:39:16;9.17;;;5.07;;
75758;SDS011;64371;47.566;19.086;2024-01-07T09:42:20;6.95;;;4.70;;
75758;SDS011;64371;47.566;19.086;2024-01-07T09:45:22;6.45;;;4.28;;
75758;SDS011;64371;47.566;19.086;2024-01-07T09:48:25;6.63;;;4.28;;
75758;SDS011;64371;47.566;19.086;2024-01-07T09:51:28;7.03;;;4.17;;
75758;SDS011;64371;47.566;19.086;2024-01-07T09:54:31;7.90;;;4.40;;
75758;SDS011;64371;47.566;19.086;2024-01-07T09:57:34;6.43;;;3.85;;
75758;SDS011;64371;47.566;19.086;2024-01-07T10:00:39;6.20;;;4.10;;
75758;SDS011;64371;47.566;19.086;2024-01-07T10:03:42;5.57;;;3.63;;
75758;SDS011;64371;47.566;19.086;2024-01-07T10:06:44;5.70;;;3.40;;
75758;SDS011;64371;47.566;19.086;2024-01-07T10:09:47;4.80;;;3.17;;
75758;SDS011;64371;47.566;19.086;2024-01-07T10:12:50;5.38;;;3.35;;
75758;SDS011;64371;47.566;19.086;2024-01-07T10:15:55;4.15;;;2.75;;
75758;SDS011;64371;47.566;19.086;2024-01-07T10:18:58;4.00;;;2.80;;
75758;SDS011;64371;47.566;19.086;2024-01-07T10:22:01;4.47;;;3.20;;
75758;SDS011;64371;47.566;19.086;2024-01-07T10:25:05;4.63;;;3.17;;
75758;SDS011;64371;47.566;19.086;2024-01-07T10:28:08;5.25;;;2.92;;
75758;SDS011;64371;47.566;19.086;2024-01-07T10:31:11;4.53;;;3.03;;
75758;SDS011;64371;47.566;19.086;2024-01-07T10:34:13;7.75;;;4.43;;
75758;SDS011;64371;47.566;19.086;2024-01-07T10:37:17;12.77;;;7.73;;
75758;SDS011;64371;47.566;19.086;2024-01-07T10:40:20;21.40;;;12.63;;
75758;SDS011;64371;47.566;19.086;2024-01-07T10:43:23;8.90;;;6.03;;
75758;SDS011;64371;47.566;19.086;2024-01-07T10:46:25;7.70;;;4.82;;
75758;SDS011;64371;47.566;19.086;2024-01-07T10:49:32;7.53;;;4.68;;
75758;SDS011;64371;47.566;19.086;2024-01-07T10:52:39;7.43;;;5.00;;
75758;SDS011;64371;47.566;19.086;2024-01-07T10:55:42;6.70;;;4.20;;
75758;SDS011;64371;47.566;19.086;2024-01-07T10:58:53;6.40;;;3.90;;
75758;SDS011;64371;47.566;19.086;2024-01-07T11:01:56;7.35;;;4.15;;
75758;SDS011;64371;47.566;19.086;2024-01-07T11:05:11;7.50;;;4.20;;
75758;SDS011;64371;47.566;19.086;2024-01-07T11:11:25;5.77;;;3.33;;
75758;SDS011;64371;47.566;19.086;2024-01-07T11:14:44;5.30;;;3.45;;
75758;SDS011;64371;47.566;19.086;2024-01-07T11:17:47;5.30;;;3.60;;
75758;SDS011;64371;47.566;19.086;2024-01-07T11:20:52;4.53;;;2.92;;
75758;SDS011;64371;47.566;19.086;2024-01-07T11:23:55;6.97;;;2.60;;
75758;SDS011;64371;47.566;19.086;2024-01-07T11:27:01;5.43;;;3.80;;
75758;SDS011;64371;47.566;19.086;2024-01-07T11:33:41;9.25;;;4.78;;
75758;SDS011;64371;47.566;19.086;2024-01-07T11:36:45;6.95;;;4.45;;
75758;SDS011;64371;47.566;19.086;2024-01-07T11:39:51;8.50;;;5.10;;
75758;SDS011;64371;47.566;19.086;2024-01-07T11:42:57;9.70;;;5.60;;
75758;SDS011;64371;47.566;19.086;2024-01-07T11:45:59;12.18;;;6.25;;
75758;SDS011;64371;47.566;19.086;2024-01-07T11:49:02;12.35;;;5.97;;
75758;SDS011;64371;47.566;19.086;2024-01-07T11:52:05;13.43;;;6.43;;
75758;SDS011;64371;47.566;19.086;2024-01-07T11:55:07;20.83;;;7.27;;
75758;SDS011;64371;47.566;19.086;2024-01-07T11:58:10;17.93;;;6.30;;
75758;SDS011;64371;47.566;19.086;2024-01-07T12:01:16;15.32;;;5.90;;
75758;SDS011;64371;47.566;19.086;2024-01-07T12:04:20;24.35;;;7.70;;
75758;SDS011;64371;47.566;19.086;2024-01-07T12:07:22;13.10;;;5.00;;
75758;SDS011;64371;47.566;19.086;2024-01-07T12:10:25;9.00;;;4.13;;
75758;SDS011;64371;47.566;19.086;2024-01-07T12:13:27;15.57;;;6.23;;
75758;SDS011;64371;47.566;19.086;2024-01-07T12:16:30;7.85;;;4.38;;
75758;SDS011;64371;47.566;19.086;2024-01-07T12:19:32;12.75;;;5.60;;
75758;SDS011;64371;47.566;19.086;2024-01-07T12:22:38;6.25;;;3.67;;
75758;SDS011;64371;47.566;19.086;2024-01-07T12:25:40;8.63;;;4.73;;
75758;SDS011;64371;47.566;19.086;2024-01-07T12:28:43;6.33;;;4.37;;
75758;SDS011;64371;47.566;19.086;2024-01-07T12:31:46;6.03;;;3.70;;
75758;SDS011;64371;47.566;19.086;2024-01-07T12:34:53;7.57;;;4.50;;
75758;SDS011;64371;47.566;19.086;2024-01-07T12:37:59;7.55;;;4.57;;
75758;SDS011;64371;47.566;19.086;2024-01-07T12:41:01;7.07;;;4.20;;
75758;SDS011;64371;47.566;19.086;2024-01-07T12:44:04;6.40;;;3.90;;
75758;SDS011;64371;47.566;19.086;2024-01-07T12:47:06;6.40;;;4.10;;
75758;SDS011;64371;47.566;19.086;2024-01-07T12:50:09;8.63;;;5.07;;
75758;SDS011;64371;47.566;19.086;2024-01-07T12:53:12;9.05;;;5.10;;
75758;SDS011;64371;47.566;19.086;2024-01-07T12:56:14;7.00;;;4.60;;
75758;SDS011;64371;47.566;19.086;2024-01-07T12:59:17;7.20;;;4.97;;
75758;SDS011;64371;47.566;19.086;2024-01-07T13:02:19;8.07;;;4.70;;
75758;SDS011;64371;47.566;19.086;2024-01-07T13:05:22;8.40;;;4.63;;
75758;SDS011;64371;47.566;19.086;2024-01-07T13:08:25;6.10;;;3.80;;
75758;SDS011;64371;47.566;19.086;2024-01-07T13:11:29;6.10;;;4.20;;
75758;SDS011;64371;47.566;19.086;2024-01-07T13:14:32;6.70;;;4.20;;
75758;SDS011;64371;47.566;19.086;2024-01-07T13:17:35;6.63;;;4.35;;
75758;SDS011;64371;47.566;19.086;2024-01-07T13:20:39;7.85;;;4.45;;
75758;SDS011;64371;47.566;19.086;2024-01-07T13:23:44;7.65;;;4.80;;
75758;SDS011;64371;47.566;19.086;2024-01-07T13:26:55;6.87;;;4.37;;
75758;SDS011;64371;47.566;19.086;2024-01-07T13:29:58;7.77;;;5.03;;
75758;SDS011;64371;47.566;19.086;2024-01-07T13:33:01;10.43;;;5.85;;
75758;SDS011;64371;47.566;19.086;2024-01-07T13:36:07;10.30;;;5.97;;
75758;SDS011;64371;47.566;19.086;2024-01-07T13:39:12;9.27;;;5.30;;
75758;SDS011;64371;47.566;19.086;2024-01-07T13:42:17;10.67;;;6.70;;
75758;SDS011;64371;47.566;19.086;2024-01-07T13:45:20;10.43;;;6.77;;
75758;SDS011;64371;47.566;19.086;2024-01-07T13:48:24;11.20;;;7.10;;
75758;SDS011;64371;47.566;19.086;2024-01-07T13:51:28;11.93;;;7.25;;
75758;SDS011;64371;47.566;19.086;2024-01-07T13:54:30;10.10;;;6.03;;
75758;SDS011;64371;47.566;19.086;2024-01-07T13:57:32;8.70;;;6.13;;
75758;SDS011;64371;47.566;19.086;2024-01-07T14:00:35;9.50;;;6.10;;
75758;SDS011;64371;47.566;19.086;2024-01-07T14:03:38;10.80;;;6.43;;
75758;SDS011;64371;47.566;19.086;2024-01-07T14:06:40;11.32;;;6.65;;
75758;SDS011;64371;47.566;19.086;2024-01-07T14:09:43;10.82;;;6.80;;
75758;SDS011;64371;47.566;19.086;2024-01-07T14:12:45;10.90;;;6.23;;
75758;SDS011;64371;47.566;19.086;2024-01-07T14:15:48;13.20;;;7.60;;
75758;SDS011;64371;47.566;19.086;2024-01-07T14:18:50;9.13;;;5.28;;
75758;SDS011;64371;47.566;19.086;2024-01-07T14:21:53;11.73;;;6.72;;
75758;SDS011;64371;47.566;19.086;2024-01-07T14:24:55;9.10;;;5.32;;
75758;SDS011;64371;47.566;19.086;2024-01-07T14:27:57;12.90;;;7.30;;
75758;SDS011;64371;47.566;19.086;2024-01-07T14:31:03;12.33;;;6.33;;
75758;SDS011;64371;47.566;19.086;2024-01-07T14:34:06;11.45;;;6.45;;
75758;SDS011;64371;47.566;19.086;2024-01-07T14:37:08;10.20;;;6.63;;
75758;SDS011;64371;47.566;19.086;2024-01-07T14:40:14;12.35;;;7.32;;
75758;SDS011;64371;47.566;19.086;2024-01-07T14:43:17;12.97;;;7.63;;
75758;SDS011;64371;47.566;19.086;2024-01-07T14:46:19;12.37;;;6.93;;
75758;SDS011;64371;47.566;19.086;2024-01-07T14:49:22;13.57;;;7.28;;
75758;SDS011;64371;47.566;19.086;2024-01-07T14:52:24;11.73;;;6.55;;
75758;SDS011;64371;47.566;19.086;2024-01-07T14:55:27;14.48;;;6.93;;
75758;SDS011;64371;47.566;19.086;2024-01-07T14:58:30;10.63;;;6.17;;
75758;SDS011;64371;47.566;19.086;2024-01-07T15:01:32;12.20;;;6.60;;
75758;SDS011;64371;47.566;19.086;2024-01-07T15:04:35;11.25;;;6.38;;
75758;SDS011;64371;47.566;19.086;2024-01-07T15:07:37;11.38;;;7.10;;
75758;SDS011;64371;47.566;19.086;2024-01-07T15:10:40;11.00;;;6.45;;
75758;SDS011;64371;47.566;19.086;2024-01-07T15:13:43;10.40;;;6.07;;
75758;SDS011;64371;47.566;19.086;2024-01-07T15:16:46;12.10;;;6.27;;
75758;SDS011;64371;47.566;19.086;2024-01-07T15:19:54;11.27;;;5.88;;
75758;SDS011;64371;47.566;19.086;2024-01-07T15:22:57;10.90;;;6.60;;
75758;SDS011;64371;47.566;19.086;2024-01-07T15:25:59;9.93;;;6.25;;
75758;SDS011;64371;47.566;19.086;2024-01-07T15:29:02;12.97;;;7.00;;
75758;SDS011;64371;47.566;19.086;2024-01-07T15:32:04;13.23;;;7.63;;
75758;SDS011;64371;47.566;19.086;2024-01-07T15:35:07;11.10;;;5.78;;
75758;SDS011;64371;47.566;19.086;2024-01-07T15:38:11;11.25;;;6.40;;
75758;SDS011;64371;47.566;19.086;2024-01-07T15:41:13;12.40;;;6.50;;
75758;SDS011;64371;47.566;19.086;2024-01-07T15:44:15;10.53;;;6.53;;
75758;SDS011;64371;47.566;19.086;2024-01-07T15:47:18;15.40;;;8.87;;
75758;SDS011;64371;47.566;19.086;2024-01-07T15:50:21;10.32;;;5.97;;
75758;SDS011;64371;47.566;19.086;2024-01-07T15:53:24;10.50;;;5.68;;
75758;SDS011;64371;47.566;19.086;2024-01-07T15:56:33;10.05;;;6.03;;
75758;SDS011;64371;47.566;19.086;2024-01-07T15:59:35;10.23;;;6.30;;
75758;SDS011;64371;47.566;19.086;2024-01-07T16:02:38;12.73;;;7.80;;
75758;SDS011;64371;47.566;19.086;2024-01-07T16:05:40;12.23;;;6.22;;
75758;SDS011;64371;47.566;19.086;2024-01-07T16:08:43;12.07;;;6.85;;
75758;SDS011;64371;47.566;19.086;2024-01-07T16:11:45;12.10;;;6.97;;
75758;SDS011;64371;47.566;19.086;2024-01-07T16:14:47;10.93;;;6.53;;
75758;SDS011;64371;47.566;19.086;2024-01-07T16:17:50;9.77;;;6.00;;
75758;SDS011;64371;47.566;19.086;2024-01-07T16:20:52;11.88;;;6.47;;
75758;SDS011;64371;47.566;19.086;2024-01-07T16:23:55;12.82;;;6.68;;
75758;SDS011;64371;47.566;19.086;2024-01-07T16:26:57;22.08;;;13.27;;
75758;SDS011;64371;47.566;19.086;2024-01-07T16:29:59;59.63;;;34.37;;
75758;SDS011;64371;47.566;19.086;2024-01-07T16:33:02;15.57;;;9.07;;
75758;SDS011;64371;47.566;19.086;2024-01-07T16:36:10;13.55;;;8.02;;
75758;SDS011;64371;47.566;19.086;2024-01-07T16:39:13;14.65;;;8.05;;
75758;SDS011;64371;47.566;19.086;2024-01-07T16:42:15;12.27;;;7.20;;
75758;SDS011;64371;47.566;19.086;2024-01-07T16:45:21;16.07;;;7.90;;
75758;SDS011;64371;47.566;19.086;2024-01-07T16:48:24;13.63;;;7.53;;
75758;SDS011;64371;47.566;19.086;2024-01-07T16:51:47;13.60;;;7.75;;
75758;SDS011;64371;47.566;19.086;2024-01-07T16:54:50;14.20;;;8.07;;
75758;SDS011;64371;47.566;19.086;2024-01-07T16:57:55;10.18;;;6.88;;
75758;SDS011;64371;47.566;19.086;2024-01-07T17:00:58;14.17;;;7.17;;
75758;SDS011;64371;47.566;19.086;2024-01-07T17:04:01;13.97;;;7.00;;
75758;SDS011;64371;47.566;19.086;2024-01-07T17:07:03;14.43;;;7.78;;
75758;SDS011;64371;47.566;19.086;2024-01-07T17:10:06;13.88;;;7.90;;
75758;SDS011;64371;47.566;19.086;2024-01-07T17:13:10;12.25;;;6.80;;
75758;SDS011;64371;47.566;19.086;2024-01-07T17:16:12;13.73;;;7.83;;
75758;SDS011;64371;47.566;19.086;2024-01-07T17:19:17;11.50;;;6.53;;
75758;SDS011;64371;47.566;19.086;2024-01-07T17:22:19;14.18;;;7.63;;
75758;SDS011;64371;47.566;19.086;2024-01-07T17:25:22;15.15;;;7.75;;
75758;SDS011;64371;47.566;19.086;2024-01-07T17:28:24;11.25;;;6.53;;
75758;SDS011;64371;47.566;19.086;2024-01-07T17:31:26;13.43;;;7.27;;
75758;SDS011;64371;47.566;19.086;2024-01-07T17:34:28;14.83;;;7.87;;
75758;SDS011;64371;47.566;19.086;2024-01-07T17:37:31;12.68;;;6.50;;
75758;SDS011;64371;47.566;19.086;2024-01-07T17:40:35;15.10;;;8.00;;
75758;SDS011;64371;47.566;19.086;2024-01-07T17:43:37;12.00;;;6.43;;
75758;SDS011;64371;47.566;19.086;2024-01-07T17:46:40;14.30;;;7.70;;
75758;SDS011;64371;47.566;19.086;2024-01-07T17:49:43;15.83;;;7.63;;
75758;SDS011;64371;47.566;19.086;2024-01-07T17:52:46;13.30;;;6.85;;
75758;SDS011;64371;47.566;19.086;2024-01-07T17:55:49;14.32;;;7.18;;
75758;SDS011;64371;47.566;19.086;2024-01-07T17:58:51;16.27;;;8.02;;
75758;SDS011;64371;47.566;19.086;2024-01-07T18:01:54;15.20;;;7.80;;